Time;durP1;ratioP1;P1;durP2;ratioP2;P2;SDS_P1;SDS_P2;PMS_P1;PMS_P2;Temp;Humidity;BMP_temperature;BMP_pressure;BME280_temperature;BME280_humidity;BME280_pressure;Samples;Min_cycle;Max_cycle;Signal;HPM_P1;HPM_P2
2023/07/16 00:24:34;;;;;;;2.55;1.30;;;;;;;;;;5088332;27;20352;-59
2023/07/16 00:27:00;;;;;;;1.58;1.10;;;;;;;;;;5087069;28;20464;-60
2023/07/16 00:29:27;;;;;;;2.30;1.13;;;;;;;;;;5089114;28;20029;-61
2023/07/16 00:31:53;;;;;;;1.75;1.05;;;;;;;;;;5087704;28;20441;-61
2023/07/16 00:34:19;;;;;;;1.98;1.20;;;;;;;;;;5088241;28;20048;-59
2023/07/16 00:36:45;;;;;;;2.00;1.05;;;;;;;;;;5088691;28;20424;-58
2023/07/16 00:39:11;;;;;;;1.70;0.68;;;;;;;;;;5087247;28;20070;-58
2023/07/16 00:41:37;;;;;;;1.67;0.80;;;;;;;;;;5088770;28;20369;-58
2023/07/16 00:44:03;;;;;;;1.23;0.60;;;;;;;;;;5087488;28;20059;-58
2023/07/16 00:46:29;;;;;;;1.67;1.00;;;;;;;;;;5088599;28;20025;-58
2023/07/16 00:48:55;;;;;;;1.77;1.25;;;;;;;;;;5088811;28;20044;-59
2023/07/16 00:51:22;;;;;;;4.88;1.10;;;;;;;;;;5088451;28;20020;-58
2023/07/16 00:53:48;;;;;;;1.58;0.90;;;;;;;;;;5087686;28;20028;-58
2023/07/16 00:56:17;;;;;;;2.88;1.00;;;;;;;;;;5088590;28;20103;-59
2023/07/16 00:58:43;;;;;;;2.20;1.17;;;;;;;;;;5088535;28;20030;-59
2023/07/16 01:01:09;;;;;;;1.45;0.75;;;;;;;;;;5087081;28;20444;-59
2023/07/16 01:03:35;;;;;;;1.42;0.82;;;;;;;;;;5087711;28;20086;-60
2023/07/16 01:06:05;;;;;;;1.55;0.70;;;;;;;;;;5088601;28;20060;-59
2023/07/16 01:08:51;;;;;;;1.75;0.95;;;;;;;;;;5088661;28;20058;-59
2023/07/16 01:11:18;;;;;;;1.60;0.85;;;;;;;;;;5073996;28;20029;-59
2023/07/16 01:13:44;;;;;;;2.45;1.00;;;;;;;;;;5072696;28;20029;-59
2023/07/16 01:16:20;;;;;;;1.50;0.73;;;;;;;;;;5066318;28;20021;-59
2023/07/16 01:18:46;;;;;;;1.90;1.10;;;;;;;;;;5067660;28;20036;-59
2023/07/16 01:21:12;;;;;;;2.67;1.40;;;;;;;;;;5067641;28;20047;-59
2023/07/16 01:23:51;;;;;;;2.15;1.27;;;;;;;;;;5063566;28;20533;-59
2023/07/16 01:26:16;;;;;;;1.80;1.10;;;;;;;;;;5054120;28;20028;-59
2023/07/16 01:28:45;;;;;;;2.00;0.90;;;;;;;;;;5054566;28;20025;-59
2023/07/16 01:31:12;;;;;;;1.70;1.08;;;;;;;;;;5054165;28;20017;-59
2023/07/16 01:33:39;;;;;;;1.50;0.80;;;;;;;;;;5053469;28;20025;-59
2023/07/16 01:36:05;;;;;;;1.88;0.98;;;;;;;;;;5054141;28;20078;-59
2023/07/16 01:38:31;;;;;;;2.55;1.40;;;;;;;;;;5054316;28;20025;-59
2023/07/16 01:40:57;;;;;;;1.73;0.93;;;;;;;;;;5052577;28;20021;-59
2023/07/16 01:43:23;;;;;;;1.88;0.70;;;;;;;;;;5053491;28;20374;-59
2023/07/16 01:45:49;;;;;;;1.77;1.00;;;;;;;;;;5053779;28;20355;-59
2023/07/16 01:48:15;;;;;;;1.75;1.00;;;;;;;;;;5054513;28;20017;-59
2023/07/16 01:50:42;;;;;;;2.28;1.08;;;;;;;;;;5053901;28;20106;-59
2023/07/16 01:53:07;;;;;;;2.95;1.00;;;;;;;;;;5053513;28;20106;-59
2023/07/16 01:55:33;;;;;;;1.30;0.75;;;;;;;;;;5053735;28;20040;-59
2023/07/16 01:57:59;;;;;;;1.80;0.75;;;;;;;;;;5052726;28;20410;-59
2023/07/16 02:00:25;;;;;;;1.63;0.90;;;;;;;;;;5053399;28;20047;-59
2023/07/16 02:02:51;;;;;;;1.17;0.68;;;;;;;;;;5053339;28;20025;-59
2023/07/16 02:05:17;;;;;;;1.67;0.90;;;;;;;;;;5053671;28;20021;-59
2023/07/16 02:07:43;;;;;;;2.65;0.63;;;;;;;;;;5053881;28;20108;-59
2023/07/16 02:10:09;;;;;;;2.03;0.80;;;;;;;;;;5053565;28;20017;-59
2023/07/16 02:12:35;;;;;;;1.40;0.80;;;;;;;;;;5053459;28;20029;-59
2023/07/16 02:15:02;;;;;;;1.05;0.50;;;;;;;;;;5052847;28;20547;-59
2023/07/16 02:17:27;;;;;;;1.45;0.77;;;;;;;;;;5053367;28;20041;-59
2023/07/16 02:19:53;;;;;;;1.35;0.90;;;;;;;;;;5054019;28;20367;-59
2023/07/16 02:22:19;;;;;;;1.52;0.85;;;;;;;;;;5053126;28;20041;-59
2023/07/16 02:24:45;;;;;;;1.65;0.73;;;;;;;;;;5052707;28;20032;-59
2023/07/16 02:27:11;;;;;;;1.83;0.85;;;;;;;;;;5053189;28;20063;-59
2023/07/16 02:29:37;;;;;;;2.55;0.98;;;;;;;;;;5053270;28;20104;-59
2023/07/16 02:32:03;;;;;;;1.67;0.75;;;;;;;;;;5053070;28;20036;-59
2023/07/16 02:34:29;;;;;;;1.38;0.85;;;;;;;;;;5052472;28;20103;-59
2023/07/16 02:36:55;;;;;;;1.27;0.75;;;;;;;;;;5052200;28;20056;-59
2023/07/16 02:39:21;;;;;;;0.95;0.50;;;;;;;;;;5052973;28;20374;-59
2023/07/16 02:41:47;;;;;;;1.02;0.60;;;;;;;;;;5052750;28;20017;-59
2023/07/16 02:44:13;;;;;;;1.73;0.60;;;;;;;;;;5052116;28;20056;-59
2023/07/16 02:46:39;;;;;;;1.65;0.98;;;;;;;;;;5053052;28;20459;-59
2023/07/16 02:49:05;;;;;;;1.50;0.85;;;;;;;;;;5053061;28;20032;-59
2023/07/16 02:51:31;;;;;;;1.02;0.50;;;;;;;;;;5051590;28;20064;-59
2023/07/16 02:53:57;;;;;;;1.55;0.70;;;;;;;;;;5052137;28;20056;-59
2023/07/16 02:56:23;;;;;;;1.25;0.73;;;;;;;;;;5052515;28;20029;-59
2023/07/16 02:58:49;;;;;;;1.38;0.55;;;;;;;;;;5052751;28;20474;-59
2023/07/16 03:01:15;;;;;;;1.25;0.77;;;;;;;;;;5052577;28;20021;-59
2023/07/16 03:03:41;;;;;;;1.15;0.65;;;;;;;;;;5051904;28;20075;-59
2023/07/16 03:06:07;;;;;;;1.80;0.90;;;;;;;;;;5052251;28;20470;-59
2023/07/16 03:08:34;;;;;;;1.58;0.82;;;;;;;;;;5051372;28;20029;-59
2023/07/16 03:11:00;;;;;;;1.63;0.88;;;;;;;;;;5052283;28;20044;-59
2023/07/16 03:13:26;;;;;;;1.40;0.68;;;;;;;;;;5051923;28;20021;-59
2023/07/16 03:15:52;;;;;;;1.83;0.80;;;;;;;;;;5052331;28;20041;-59
2023/07/16 03:18:19;;;;;;;3.10;0.82;;;;;;;;;;5052678;28;20111;-59
2023/07/16 03:20:45;;;;;;;1.70;0.93;;;;;;;;;;5052150;28;20013;-59
2023/07/16 03:23:11;;;;;;;1.38;0.63;;;;;;;;;;5051783;28;20052;-59
2023/07/16 03:25:37;;;;;;;2.00;0.80;;;;;;;;;;5051895;28;20419;-59
2023/07/16 03:28:03;;;;;;;1.88;0.73;;;;;;;;;;5052173;28;20021;-59
2023/07/16 03:30:31;;;;;;;1.50;0.57;;;;;;;;;;5052053;28;20067;-59
2023/07/16 03:32:56;;;;;;;1.25;0.70;;;;;;;;;;5051682;28;20113;-59
2023/07/16 03:35:22;;;;;;;1.58;0.73;;;;;;;;;;5052159;28;20110;-59
2023/07/16 03:37:48;;;;;;;1.52;0.88;;;;;;;;;;5052134;28;20021;-59
2023/07/16 03:40:18;;;;;;;1.98;0.90;;;;;;;;;;5051709;28;20029;-59
2023/07/16 03:42:45;;;;;;;2.35;0.98;;;;;;;;;;5051488;28;20056;-59
2023/07/16 03:45:11;;;;;;;2.08;0.90;;;;;;;;;;5052328;28;20025;-59
2023/07/16 03:47:37;;;;;;;1.40;0.73;;;;;;;;;;5051971;28;20155;-59
2023/07/16 03:50:03;;;;;;;1.83;0.77;;;;;;;;;;5052338;28;20048;-59
2023/07/16 03:52:29;;;;;;;2.35;0.80;;;;;;;;;;5051673;28;20450;-59
2023/07/16 03:54:55;;;;;;;1.25;0.70;;;;;;;;;;5051266;28;20110;-59
2023/07/16 03:57:21;;;;;;;4.88;0.82;;;;;;;;;;5051504;28;20095;-59
2023/07/16 03:59:47;;;;;;;2.85;1.05;;;;;;;;;;5052066;28;20021;-59
2023/07/16 04:02:13;;;;;;;1.67;0.90;;;;;;;;;;5050201;28;20040;-59
2023/07/16 04:04:39;;;;;;;2.58;1.00;;;;;;;;;;5051214;28;20029;-59
2023/07/16 04:07:05;;;;;;;0.98;0.50;;;;;;;;;;5051542;28;20423;-59
2023/07/16 04:09:31;;;;;;;2.13;0.98;;;;;;;;;;5051658;28;20462;-59
2023/07/16 04:11:57;;;;;;;1.70;0.80;;;;;;;;;;5051844;28;20025;-59
2023/07/16 04:14:23;;;;;;;1.95;0.77;;;;;;;;;;5051090;28;20415;-59
2023/07/16 04:16:49;;;;;;;2.47;1.42;;;;;;;;;;5051428;28;20381;-59
2023/07/16 04:19:15;;;;;;;1.73;0.80;;;;;;;;;;5051631;28;20025;-59
2023/07/16 04:21:41;;;;;;;2.03;1.40;;;;;;;;;;5051355;28;20021;-59
2023/07/16 04:24:07;;;;;;;2.00;0.70;;;;;;;;;;5049628;28;20045;-59
2023/07/16 04:26:33;;;;;;;2.40;0.85;;;;;;;;;;5051561;28;20021;-59
2023/07/16 04:28:59;;;;;;;1.95;1.20;;;;;;;;;;5051835;28;20104;-59
2023/07/16 04:31:25;;;;;;;1.27;0.60;;;;;;;;;;5051349;28;20028;-59
2023/07/16 04:33:51;;;;;;;1.83;0.90;;;;;;;;;;5050835;28;20021;-59
2023/07/16 04:36:17;;;;;;;2.42;0.82;;;;;;;;;;5051178;28;20075;-59
2023/07/16 04:38:43;;;;;;;1.52;0.82;;;;;;;;;;5051376;28;20028;-59
2023/07/16 04:41:09;;;;;;;1.65;0.95;;;;;;;;;;5050862;28;20025;-59
2023/07/16 04:43:35;;;;;;;1.88;0.88;;;;;;;;;;5049423;28;20025;-59
2023/07/16 04:46:01;;;;;;;2.70;1.00;;;;;;;;;;5051017;28;20029;-59
2023/07/16 04:48:27;;;;;;;1.92;1.10;;;;;;;;;;5051731;28;20483;-59
2023/07/16 04:50:53;;;;;;;1.63;0.88;;;;;;;;;;5050953;28;20100;-59
2023/07/16 04:53:19;;;;;;;1.88;1.02;;;;;;;;;;5050355;28;20511;-59
2023/07/16 04:55:45;;;;;;;3.28;0.88;;;;;;;;;;5051273;28;20020;-59
2023/07/16 04:58:14;;;;;;;1.67;0.93;;;;;;;;;;5051428;28;20025;-59
2023/07/16 05:00:40;;;;;;;1.95;1.15;;;;;;;;;;5050616;28;20104;-59
2023/07/16 05:03:06;;;;;;;2.30;1.13;;;;;;;;;;5046126;28;20064;-59
2023/07/16 05:05:32;;;;;;;1.42;0.70;;;;;;;;;;5052783;28;20064;-59
2023/07/16 05:07:58;;;;;;;2.30;1.23;;;;;;;;;;5053754;28;20147;-59
2023/07/16 05:10:24;;;;;;;2.10;1.02;;;;;;;;;;5050811;28;20017;-59
2023/07/16 05:12:50;;;;;;;1.63;1.02;;;;;;;;;;5049649;28;20025;-59
2023/07/16 05:15:16;;;;;;;1.02;0.60;;;;;;;;;;5050756;28;20029;-59
2023/07/16 05:17:42;;;;;;;1.90;1.05;;;;;;;;;;5047150;28;20498;-59
2023/07/16 05:20:11;;;;;;;2.47;1.25;;;;;;;;;;5051283;28;20025;-59
2023/07/16 05:22:37;;;;;;;3.25;1.00;;;;;;;;;;5052502;28;20587;-59
2023/07/16 05:25:03;;;;;;;2.00;0.98;;;;;;;;;;5045446;28;20144;-59
2023/07/16 05:27:29;;;;;;;1.33;0.82;;;;;;;;;;5037541;28;20030;-59
2023/07/16 05:29:55;;;;;;;3.22;1.23;;;;;;;;;;5049548;28;20541;-59
2023/07/16 05:32:22;;;;;;;1.70;1.00;;;;;;;;;;5042172;28;20057;-59
2023/07/16 05:34:48;;;;;;;1.83;1.35;;;;;;;;;;5050691;28;20021;-59
2023/07/16 05:37:14;;;;;;;2.53;1.05;;;;;;;;;;5049139;28;20033;-59
2023/07/16 05:39:40;;;;;;;3.95;0.70;;;;;;;;;;5051489;28;20474;-59
2023/07/16 05:42:06;;;;;;;1.85;0.95;;;;;;;;;;5040847;28;20083;-58
2023/07/16 05:44:32;;;;;;;2.13;1.10;;;;;;;;;;5033565;28;20021;-59
2023/07/16 05:46:58;;;;;;;1.83;0.93;;;;;;;;;;5049035;28;20031;-59
2023/07/16 05:49:25;;;;;;;1.48;0.95;;;;;;;;;;5048437;28;20021;-59
2023/07/16 05:51:51;;;;;;;3.70;1.30;;;;;;;;;;5050445;28;20029;-59
2023/07/16 05:54:17;;;;;;;2.33;1.10;;;;;;;;;;5039695;28;20030;-59
2023/07/16 05:56:43;;;;;;;2.80;1.38;;;;;;;;;;5044349;28;20090;-59
2023/07/16 05:59:09;;;;;;;2.42;1.52;;;;;;;;;;5050603;28;20048;-59
2023/07/16 06:01:35;;;;;;;3.00;1.30;;;;;;;;;;5051953;28;20067;-59
2023/07/16 06:04:02;;;;;;;6.85;1.13;;;;;;;;;;5051838;28;20447;-59
2023/07/16 06:06:29;;;;;;;2.15;1.20;;;;;;;;;;5053238;28;20108;-59
2023/07/16 06:08:55;;;;;;;3.92;1.65;;;;;;;;;;5051306;28;20417;-59
2023/07/16 06:11:21;;;;;;;4.40;1.00;;;;;;;;;;5049877;28;20044;-59
2023/07/16 06:13:47;;;;;;;2.58;1.05;;;;;;;;;;5056736;28;20418;-59
2023/07/16 06:16:13;;;;;;;5.38;0.98;;;;;;;;;;5051731;28;20381;-59
2023/07/16 06:18:39;;;;;;;2.25;1.23;;;;;;;;;;5051645;28;20029;-59
2023/07/16 06:21:04;;;;;;;1.80;1.00;;;;;;;;;;5050273;28;20033;-59
2023/07/16 06:23:31;;;;;;;2.85;1.40;;;;;;;;;;5050129;28;20436;-59
2023/07/16 06:25:57;;;;;;;2.30;0.95;;;;;;;;;;5042793;28;20025;-59
2023/07/16 06:28:23;;;;;;;2.65;1.08;;;;;;;;;;5049365;28;20017;-59
2023/07/16 06:30:51;;;;;;;3.78;1.48;;;;;;;;;;5045363;28;20910;-59
2023/07/16 06:33:17;;;;;;;1.85;0.80;;;;;;;;;;5053124;28;20036;-59
2023/07/16 06:35:47;;;;;;;2.60;1.00;;;;;;;;;;5051792;28;20036;-59
2023/07/16 06:38:14;;;;;;;3.77;1.27;;;;;;;;;;5048758;28;20390;-59
2023/07/16 06:40:40;;;;;;;2.38;0.93;;;;;;;;;;5052686;28;20761;-59
2023/07/16 06:43:06;;;;;;;1.73;0.90;;;;;;;;;;5046269;28;20037;-59
2023/07/16 06:45:32;;;;;;;1.65;0.90;;;;;;;;;;5050114;28;20462;-59
2023/07/16 06:47:58;;;;;;;3.20;1.20;;;;;;;;;;5052359;28;20075;-59
2023/07/16 06:50:24;;;;;;;1.90;1.08;;;;;;;;;;5048706;28;20021;-59
2023/07/16 06:52:50;;;;;;;1.92;1.02;;;;;;;;;;5052101;28;20501;-59
2023/07/16 06:55:16;;;;;;;3.53;1.27;;;;;;;;;;5052194;28;20055;-59
2023/07/16 06:57:42;;;;;;;1.10;0.60;;;;;;;;;;5048655;28;20029;-59
2023/07/16 07:00:11;;;;;;;1.80;1.15;;;;;;;;;;5049825;28;20040;-59
2023/07/16 07:02:37;;;;;;;1.40;0.82;;;;;;;;;;5048498;28;20386;-58
2023/07/16 07:05:03;;;;;;;2.17;1.35;;;;;;;;;;5052079;28;20060;-59
2023/07/16 07:07:29;;;;;;;3.40;1.15;;;;;;;;;;5052426;28;20052;-59
2023/07/16 07:09:55;;;;;;;2.50;1.35;;;;;;;;;;5048299;28;20517;-60
2023/07/16 07:12:21;;;;;;;2.08;1.27;;;;;;;;;;5044400;28;20086;-60
2023/07/16 07:14:47;;;;;;;2.45;1.00;;;;;;;;;;5042268;28;20029;-59
2023/07/16 07:17:13;;;;;;;3.08;0.93;;;;;;;;;;5049084;28;20025;-59
2023/07/16 07:19:39;;;;;;;6.53;1.00;;;;;;;;;;5045015;28;20119;-59
2023/07/16 07:22:05;;;;;;;2.05;1.08;;;;;;;;;;5046654;28;20021;-59
2023/07/16 07:24:31;;;;;;;2.65;1.05;;;;;;;;;;5044184;28;20029;-59
2023/07/16 07:26:57;;;;;;;2.17;1.30;;;;;;;;;;5045228;28;20025;-59
2023/07/16 07:29:23;;;;;;;2.28;1.15;;;;;;;;;;5035397;28;20029;-59
2023/07/16 07:31:49;;;;;;;1.90;0.98;;;;;;;;;;5046328;28;20021;-59
2023/07/16 07:34:15;;;;;;;2.00;1.02;;;;;;;;;;5049713;28;20525;-59
2023/07/16 07:36:41;;;;;;;2.60;1.13;;;;;;;;;;5041911;28;20083;-58
2023/07/16 07:39:08;;;;;;;2.25;0.77;;;;;;;;;;5042394;28;20078;-59
2023/07/16 07:41:34;;;;;;;1.45;0.85;;;;;;;;;;5051734;28;20013;-59
2023/07/16 07:44:00;;;;;;;4.95;1.35;;;;;;;;;;5048511;28;20387;-59
2023/07/16 07:46:26;;;;;;;4.30;1.13;;;;;;;;;;5049953;28;20121;-59
2023/07/16 07:48:52;;;;;;;1.85;0.90;;;;;;;;;;5038088;28;20109;-59
2023/07/16 07:51:18;;;;;;;2.50;0.95;;;;;;;;;;5039147;28;20358;-59
2023/07/16 07:53:44;;;;;;;3.15;1.55;;;;;;;;;;5047929;28;20363;-59
2023/07/16 07:56:10;;;;;;;2.00;1.15;;;;;;;;;;5051271;28;20032;-59
2023/07/16 07:58:40;;;;;;;4.18;1.15;;;;;;;;;;5049380;28;20047;-59
2023/07/16 08:01:06;;;;;;;2.00;1.08;;;;;;;;;;5033270;28;20029;-59
2023/07/16 08:03:32;;;;;;;2.35;1.40;;;;;;;;;;5041449;28;20064;-59
2023/07/16 08:05:58;;;;;;;4.15;1.35;;;;;;;;;;5043054;28;20020;-59
2023/07/16 08:08:24;;;;;;;3.95;0.88;;;;;;;;;;5041582;28;20029;-59
2023/07/16 08:10:50;;;;;;;2.50;1.35;;;;;;;;;;5041874;28;20024;-59
2023/07/16 08:13:16;;;;;;;2.15;0.90;;;;;;;;;;5042915;28;20056;-59
2023/07/16 08:15:42;;;;;;;2.15;1.10;;;;;;;;;;5035640;28;20073;-59
2023/07/16 08:18:08;;;;;;;3.60;1.00;;;;;;;;;;5051346;28;20025;-59
2023/07/16 08:20:35;;;;;;;2.42;1.27;;;;;;;;;;5048299;28;20090;-59
2023/07/16 08:23:01;;;;;;;2.20;1.20;;;;;;;;;;5050386;28;20037;-59
2023/07/16 08:25:30;;;;;;;2.20;0.98;;;;;;;;;;5051072;28;20021;-59
2023/07/16 08:27:56;;;;;;;4.63;1.20;;;;;;;;;;5043919;28;20162;-60
2023/07/16 08:30:22;;;;;;;2.40;1.30;;;;;;;;;;5048628;28;20108;-59
2023/07/16 08:32:48;;;;;;;3.15;1.02;;;;;;;;;;5049355;28;20108;-59
2023/07/16 08:35:16;;;;;;;1.60;0.80;;;;;;;;;;5053405;28;20059;-60
2023/07/16 08:37:43;;;;;;;3.72;1.15;;;;;;;;;;5049817;28;20060;-60
2023/07/16 08:40:09;;;;;;;1.90;0.90;;;;;;;;;;5052153;28;20396;-61
2023/07/16 08:42:37;;;;;;;2.13;1.10;;;;;;;;;;5052011;28;20041;-60
2023/07/16 08:45:04;;;;;;;4.55;1.33;;;;;;;;;;5053733;28;20030;-61
2023/07/16 08:47:30;;;;;;;3.15;1.42;;;;;;;;;;5052920;28;20025;-60
2023/07/16 08:49:56;;;;;;;2.55;1.10;;;;;;;;;;5054964;28;20524;-60
2023/07/16 08:52:22;;;;;;;2.38;0.90;;;;;;;;;;5053088;28;20036;-59
2023/07/16 08:54:48;;;;;;;2.00;1.15;;;;;;;;;;5050508;28;20031;-59
2023/07/16 08:57:15;;;;;;;1.60;0.98;;;;;;;;;;5049246;28;20025;-59
2023/07/16 08:59:41;;;;;;;2.08;0.70;;;;;;;;;;5054972;28;20096;-59
2023/07/16 09:02:07;;;;;;;2.55;1.35;;;;;;;;;;5050752;28;20033;-60
2023/07/16 09:04:33;;;;;;;6.60;1.08;;;;;;;;;;5050275;28;20022;-59
2023/07/16 09:06:59;;;;;;;1.60;0.77;;;;;;;;;;5042489;28;20364;-59
2023/07/16 09:09:25;;;;;;;1.95;1.08;;;;;;;;;;5048229;28;20124;-59
2023/07/16 09:11:51;;;;;;;1.88;0.88;;;;;;;;;;5053107;28;20018;-59
2023/07/16 09:14:18;;;;;;;1.45;0.70;;;;;;;;;;5053674;28;20029;-59
2023/07/16 09:16:47;;;;;;;2.95;1.10;;;;;;;;;;5051477;28;20484;-59
2023/07/16 09:19:15;;;;;;;2.53;0.98;;;;;;;;;;5048634;28;20112;-59
2023/07/16 09:21:41;;;;;;;1.25;0.68;;;;;;;;;;5053549;28;20013;-59
2023/07/16 09:24:08;;;;;;;2.85;1.27;;;;;;;;;;5051506;28;20114;-59
2023/07/16 09:26:36;;;;;;;2.15;1.10;;;;;;;;;;5054418;28;20025;-59
2023/07/16 09:29:06;;;;;;;2.05;1.00;;;;;;;;;;5046213;28;20072;-59
2023/07/16 09:31:32;;;;;;;2.25;1.00;;;;;;;;;;5052114;28;20437;-59
2023/07/16 09:33:58;;;;;;;1.67;0.90;;;;;;;;;;5051905;28;20080;-59
2023/07/16 09:36:25;;;;;;;1.75;1.05;;;;;;;;;;5054125;28;20136;-59
2023/07/16 09:38:52;;;;;;;2.45;1.10;;;;;;;;;;5052911;28;20025;-59
2023/07/16 09:41:19;;;;;;;1.60;0.80;;;;;;;;;;5057716;28;20175;-59
2023/07/16 09:43:44;;;;;;;1.98;1.05;;;;;;;;;;5053523;28;20485;-59
2023/07/16 09:46:11;;;;;;;1.77;0.75;;;;;;;;;;5053349;28;20050;-59
2023/07/16 09:48:36;;;;;;;3.17;0.90;;;;;;;;;;5053207;28;20021;-60
2023/07/16 09:51:02;;;;;;;4.60;0.80;;;;;;;;;;5053734;28;20021;-59
2023/07/16 09:53:31;;;;;;;3.03;0.82;;;;;;;;;;5052051;28;20359;-60
2023/07/16 09:55:58;;;;;;;2.55;1.00;;;;;;;;;;5048356;28;20029;-59
2023/07/16 09:58:25;;;;;;;2.30;1.05;;;;;;;;;;5050222;28;20287;-60
2023/07/16 10:00:51;;;;;;;2.65;0.98;;;;;;;;;;5050717;28;20094;-59
2023/07/16 10:03:17;;;;;;;4.50;1.00;;;;;;;;;;5053249;28;20422;-59
2023/07/16 10:05:43;;;;;;;3.15;0.98;;;;;;;;;;5053459;28;20028;-60
2023/07/16 10:08:19;;;;;;;1.55;0.63;;;;;;;;;;5046487;28;20030;-59
2023/07/16 10:10:57;;;;;;;1.75;0.90;;;;;;;;;;5044966;28;20147;-59
2023/07/16 10:13:23;;;;;;;1.98;0.90;;;;;;;;;;5041129;28;20051;-59
2023/07/16 10:15:53;;;;;;;1.25;0.73;;;;;;;;;;5041662;28;20022;-59
2023/07/16 10:18:33;;;;;;;1.90;0.75;;;;;;;;;;5042477;28;20105;-59
2023/07/16 10:21:07;;;;;;;1.92;0.75;;;;;;;;;;5045178;28;20365;-59
2023/07/16 10:23:42;;;;;;;4.30;1.25;;;;;;;;;;5046777;28;20266;-59
2023/07/16 10:26:09;;;;;;;1.77;0.90;;;;;;;;;;5050460;28;20385;-59
2023/07/16 10:28:36;;;;;;;1.77;1.05;;;;;;;;;;5051980;28;20039;-59
2023/07/16 10:31:02;;;;;;;2.13;0.90;;;;;;;;;;5044016;28;20033;-59
2023/07/16 10:33:28;;;;;;;2.30;1.10;;;;;;;;;;5051484;28;20029;-59
2023/07/16 10:35:56;;;;;;;3.80;0.70;;;;;;;;;;5050890;28;20078;-60
2023/07/16 10:38:22;;;;;;;2.10;1.30;;;;;;;;;;5048905;28;20108;-60
2023/07/16 10:40:48;;;;;;;2.15;0.90;;;;;;;;;;5040685;28;20419;-60
2023/07/16 10:43:15;;;;;;;2.08;1.10;;;;;;;;;;5045638;28;20124;-60
2023/07/16 10:45:41;;;;;;;1.60;0.65;;;;;;;;;;5051913;28;20036;-60
2023/07/16 10:48:07;;;;;;;1.80;0.82;;;;;;;;;;5053047;28;20139;-60
2023/07/16 10:50:34;;;;;;;3.25;1.42;;;;;;;;;;5039473;28;20670;-59
2023/07/16 10:53:00;;;;;;;2.83;1.00;;;;;;;;;;5041719;28;20037;-60
2023/07/16 10:55:27;;;;;;;2.15;0.95;;;;;;;;;;5045813;28;20155;-60
2023/07/16 10:57:54;;;;;;;2.17;1.20;;;;;;;;;;5048555;28;20068;-60
2023/07/16 11:00:21;;;;;;;4.93;1.10;;;;;;;;;;5047456;28;20621;-60
2023/07/16 11:02:47;;;;;;;1.83;1.08;;;;;;;;;;5050742;28;20025;-60
2023/07/16 11:05:14;;;;;;;4.05;1.38;;;;;;;;;;5050780;28;20083;-60
2023/07/16 11:07:44;;;;;;;3.65;1.50;;;;;;;;;;5051127;28;20122;-60
2023/07/16 11:10:10;;;;;;;2.38;1.25;;;;;;;;;;5045542;28;20163;-60
2023/07/16 11:12:36;;;;;;;1.15;0.70;;;;;;;;;;5050227;28;20029;-60
2023/07/16 11:15:03;;;;;;;2.05;1.13;;;;;;;;;;5049072;28;20028;-59
2023/07/16 11:17:29;;;;;;;4.65;1.45;;;;;;;;;;5046976;28;20017;-59
2023/07/16 11:19:55;;;;;;;2.13;0.98;;;;;;;;;;5048756;28;20603;-59
2023/07/16 11:22:26;;;;;;;2.35;1.15;;;;;;;;;;5048225;28;20041;-59
2023/07/16 11:24:52;;;;;;;2.47;1.10;;;;;;;;;;5047576;28;20076;-59
2023/07/16 11:27:28;;;;;;;2.90;0.93;;;;;;;;;;5047635;28;20021;-59
2023/07/16 11:29:55;;;;;;;2.40;0.98;;;;;;;;;;5045105;28;20056;-59
2023/07/16 11:32:34;;;;;;;1.95;0.90;;;;;;;;;;5050739;28;20308;-59
2023/07/16 11:35:01;;;;;;;2.97;1.20;;;;;;;;;;5041068;28;20030;-60
2023/07/16 11:37:31;;;;;;;2.72;1.10;;;;;;;;;;5044194;28;20033;-61
2023/07/16 11:40:07;;;;;;;2.15;1.10;;;;;;;;;;5043545;28;20026;-59
2023/07/16 11:42:34;;;;;;;4.55;1.23;;;;;;;;;;5045135;28;20049;-59
2023/07/16 11:45:00;;;;;;;5.85;1.02;;;;;;;;;;5045972;28;20021;-59
2023/07/16 11:47:26;;;;;;;2.33;1.00;;;;;;;;;;5047352;28;20052;-59
2023/07/16 11:49:52;;;;;;;2.63;1.42;;;;;;;;;;5051306;28;20435;-60
2023/07/16 11:52:21;;;;;;;1.95;1.17;;;;;;;;;;5050756;28;20049;-60
2023/07/16 11:54:48;;;;;;;5.22;1.10;;;;;;;;;;5048601;28;20355;-60
2023/07/16 11:57:14;;;;;;;2.33;1.17;;;;;;;;;;5046689;28;20087;-60
2023/07/16 11:59:40;;;;;;;2.42;1.42;;;;;;;;;;5050952;28;20021;-60
2023/07/16 12:02:06;;;;;;;2.17;1.17;;;;;;;;;;5048221;28;20033;-60
2023/07/16 12:04:32;;;;;;;2.00;1.15;;;;;;;;;;5048729;28;20068;-60
2023/07/16 12:06:58;;;;;;;1.77;0.98;;;;;;;;;;5050355;28;20468;-60
2023/07/16 12:09:24;;;;;;;2.60;1.35;;;;;;;;;;5048338;28;20021;-60
2023/07/16 12:11:50;;;;;;;3.85;1.15;;;;;;;;;;5043401;28;20017;-60
2023/07/16 12:14:16;;;;;;;2.58;1.08;;;;;;;;;;5048680;28;20037;-60
2023/07/16 12:16:42;;;;;;;1.73;1.02;;;;;;;;;;5050248;28;20453;-60
2023/07/16 12:19:09;;;;;;;2.05;1.10;;;;;;;;;;5050473;28;20032;-60
2023/07/16 12:21:35;;;;;;;3.17;1.48;;;;;;;;;;5043755;28;20033;-60
2023/07/16 12:24:01;;;;;;;1.92;1.10;;;;;;;;;;5042749;28;20037;-60
2023/07/16 12:26:27;;;;;;;2.25;1.42;;;;;;;;;;5041086;28;20044;-60
2023/07/16 12:28:53;;;;;;;2.00;1.00;;;;;;;;;;5041450;28;20028;-60
2023/07/16 12:31:20;;;;;;;2.22;1.08;;;;;;;;;;5039461;28;20029;-60
2023/07/16 12:33:46;;;;;;;2.13;1.13;;;;;;;;;;5038208;28;20075;-60
2023/07/16 12:36:12;;;;;;;3.17;1.27;;;;;;;;;;5050232;28;20438;-60
2023/07/16 12:38:38;;;;;;;3.35;1.35;;;;;;;;;;5049631;28;20017;-60
2023/07/16 12:41:04;;;;;;;2.10;1.10;;;;;;;;;;5043615;28;20505;-60
2023/07/16 12:43:32;;;;;;;1.15;0.63;;;;;;;;;;5042991;28;20032;-60
2023/07/16 12:45:58;;;;;;;1.95;0.90;;;;;;;;;;5050907;28;20021;-60
2023/07/16 12:48:24;;;;;;;2.45;1.23;;;;;;;;;;5051569;28;20044;-60
2023/07/16 12:50:49;;;;;;;2.20;1.25;;;;;;;;;;5038251;28;20021;-60
2023/07/16 12:53:15;;;;;;;1.58;0.85;;;;;;;;;;5049667;28;20056;-60
2023/07/16 12:55:41;;;;;;;1.83;0.80;;;;;;;;;;5050879;28;20025;-60
2023/07/16 12:58:07;;;;;;;2.75;1.00;;;;;;;;;;5050611;28;20394;-60
2023/07/16 13:00:33;;;;;;;2.65;1.98;;;;;;;;;;5041049;28;20094;-60
2023/07/16 13:02:59;;;;;;;2.00;0.95;;;;;;;;;;5048661;28;20029;-60
2023/07/16 13:05:25;;;;;;;2.88;1.30;;;;;;;;;;5050249;28;20029;-60
2023/07/16 13:07:51;;;;;;;9.07;1.17;;;;;;;;;;5051089;28;20025;-61
2023/07/16 13:10:18;;;;;;;2.22;1.10;;;;;;;;;;5039073;28;20029;-60
2023/07/16 13:12:44;;;;;;;2.72;1.00;;;;;;;;;;5050068;28;20108;-60
2023/07/16 13:15:11;;;;;;;2.40;1.08;;;;;;;;;;5047722;28;20105;-60
2023/07/16 13:17:37;;;;;;;2.00;1.10;;;;;;;;;;5044966;28;20424;-60
2023/07/16 13:20:04;;;;;;;2.47;0.93;;;;;;;;;;5038796;28;20033;-60
2023/07/16 13:22:30;;;;;;;2.03;1.10;;;;;;;;;;5046592;28;20041;-60
2023/07/16 13:24:56;;;;;;;2.17;1.10;;;;;;;;;;5047612;28;20033;-60
2023/07/16 13:27:23;;;;;;;5.20;1.50;;;;;;;;;;5050001;28;20028;-60
2023/07/16 13:29:49;;;;;;;2.70;1.30;;;;;;;;;;5052319;28;20029;-60
2023/07/16 13:32:16;;;;;;;1.55;1.00;;;;;;;;;;5048535;28;20025;-60
2023/07/16 13:34:42;;;;;;;2.63;1.23;;;;;;;;;;5041867;28;20474;-60
2023/07/16 13:37:08;;;;;;;3.78;1.38;;;;;;;;;;5053583;28;20029;-60
2023/07/16 13:39:34;;;;;;;3.17;1.17;;;;;;;;;;5049689;28;20078;-60
2023/07/16 13:42:00;;;;;;;2.50;1.08;;;;;;;;;;5047574;28;20375;-61
2023/07/16 13:44:25;;;;;;;2.67;1.50;;;;;;;;;;5050113;28;20041;-60
2023/07/16 13:46:51;;;;;;;1.75;0.85;;;;;;;;;;5053542;28;20462;-60
2023/07/16 13:49:17;;;;;;;3.58;1.48;;;;;;;;;;5053203;28;20021;-60
2023/07/16 13:51:43;;;;;;;1.58;0.90;;;;;;;;;;5050131;28;20078;-61
2023/07/16 13:54:11;;;;;;;3.35;1.05;;;;;;;;;;5051908;28;20104;-61
2023/07/16 13:56:37;;;;;;;1.88;1.05;;;;;;;;;;5053049;28;20346;-61
2023/07/16 13:59:03;;;;;;;1.92;1.02;;;;;;;;;;5051705;28;20128;-61
2023/07/16 14:01:29;;;;;;;2.13;1.20;;;;;;;;;;5048879;28;20064;-61
2023/07/16 14:03:56;;;;;;;1.75;0.93;;;;;;;;;;5052444;28;20087;-61
2023/07/16 14:06:22;;;;;;;2.15;1.15;;;;;;;;;;5045794;28;20048;-61
2023/07/16 14:08:48;;;;;;;1.88;1.10;;;;;;;;;;5051150;28;20486;-61
2023/07/16 14:11:15;;;;;;;2.25;0.98;;;;;;;;;;5051419;28;20024;-58
2023/07/16 14:13:41;;;;;;;1.85;1.00;;;;;;;;;;5052307;28;20070;-58
2023/07/16 14:16:07;;;;;;;2.10;1.13;;;;;;;;;;5052380;28;20458;-58
2023/07/16 14:18:33;;;;;;;2.47;1.02;;;;;;;;;;5051987;28;20099;-59
2023/07/16 14:21:00;;;;;;;2.22;0.80;;;;;;;;;;5051889;28;20033;-59
2023/07/16 14:23:27;;;;;;;1.25;0.70;;;;;;;;;;5048673;28;20037;-59
2023/07/16 14:25:53;;;;;;;1.63;0.93;;;;;;;;;;5050025;28;20036;-59
2023/07/16 14:28:19;;;;;;;2.22;0.93;;;;;;;;;;5051393;28;20021;-59
2023/07/16 14:30:45;;;;;;;1.88;1.02;;;;;;;;;;5043002;28;20044;-60
2023/07/16 14:33:11;;;;;;;1.55;0.85;;;;;;;;;;5042816;28;20017;-60
2023/07/16 14:35:37;;;;;;;1.63;1.00;;;;;;;;;;5051019;28;20017;-60
2023/07/16 14:38:03;;;;;;;3.42;1.60;;;;;;;;;;5050296;28;20051;-60
2023/07/16 14:40:29;;;;;;;3.28;1.77;;;;;;;;;;5041483;28;20029;-60
2023/07/16 14:42:55;;;;;;;3.90;2.30;;;;;;;;;;5043144;28;20037;-60
2023/07/16 14:45:21;;;;;;;2.50;1.63;;;;;;;;;;5048123;28;20036;-61
2023/07/16 14:47:47;;;;;;;4.03;2.50;;;;;;;;;;5051830;28;20028;-61
2023/07/16 14:50:13;;;;;;;3.53;2.45;;;;;;;;;;5052679;28;20036;-61
2023/07/16 14:52:39;;;;;;;2.72;1.85;;;;;;;;;;5052435;28;20025;-61
2023/07/16 14:55:05;;;;;;;2.50;1.75;;;;;;;;;;5048369;28;20044;-61
2023/07/16 14:57:31;;;;;;;2.88;1.35;;;;;;;;;;5051632;28;20020;-61
2023/07/16 14:59:57;;;;;;;3.13;1.10;;;;;;;;;;5051974;28;20025;-61
2023/07/16 15:02:23;;;;;;;2.33;1.20;;;;;;;;;;5047492;28;20108;-58